Time;durP1;ratioP1;P1;durP2;ratioP2;P2;SDS_P1;SDS_P2;PMS_P1;PMS_P2;Temp;Humidity;BMP_temperature;BMP_pressure;BME280_temperature;BME280_humidity;BME280_pressure;Samples;Min_cycle;Max_cycle;Signal;HPM_P1;HPM_P2
2022/01/13 00:01:55;;;;;;;8.77;7.57;;;6.60;79.00;;;;;;933850;152;27450;-72
2022/01/13 00:04:21;;;;;;;11.23;8.53;;;6.60;79.10;;;;;;935462;151;27359;-72
2022/01/13 00:06:48;;;;;;;9.87;8.87;;;6.60;79.10;;;;;;935380;152;27315;-72
2022/01/13 00:09:14;;;;;;;10.03;8.03;;;6.60;79.20;;;;;;935367;152;27408;-72
2022/01/13 00:11:41;;;;;;;9.70;8.43;;;6.60;79.20;;;;;;934524;150;27693;-72
2022/01/13 00:14:23;;;;;;;11.13;8.77;;;6.70;79.20;;;;;;934713;150;27391;-73
2022/01/13 00:16:43;;;;;;;10.73;8.27;;;6.70;79.20;;;;;;933742;151;27442;-72
2022/01/13 00:21:47;;;;;;;10.73;8.20;;;6.70;79.30;;;;;;934630;151;27332;-72
2022/01/13 00:24:10;;;;;;;10.20;8.67;;;6.70;79.40;;;;;;935490;151;27320;-72
2022/01/13 00:26:34;;;;;;;9.97;8.30;;;6.70;79.40;;;;;;933659;151;27441;-73
2022/01/13 00:29:01;;;;;;;9.57;7.67;;;6.70;79.50;;;;;;933820;151;27365;-72
2022/01/13 00:31:31;;;;;;;10.90;9.77;;;6.70;79.60;;;;;;934965;152;27324;-72
2022/01/13 00:33:54;;;;;;;11.23;8.17;;;6.70;79.60;;;;;;934627;151;27310;-72
2022/01/13 00:36:19;;;;;;;11.43;9.00;;;6.70;79.60;;;;;;934982;152;27417;-72
2022/01/13 00:38:45;;;;;;;10.03;8.03;;;6.70;79.60;;;;;;934109;151;27324;-73
2022/01/13 00:41:12;;;;;;;9.73;8.57;;;6.80;79.70;;;;;;933582;151;27344;-72
2022/01/13 00:43:41;;;;;;;9.87;8.70;;;6.80;79.80;;;;;;935291;151;27789;-72
2022/01/13 00:46:05;;;;;;;10.23;8.40;;;6.80;79.80;;;;;;934895;152;27407;-72
2022/01/13 00:48:31;;;;;;;9.17;8.20;;;6.80;79.80;;;;;;934252;152;27396;-72
2022/01/13 00:50:58;;;;;;;9.17;8.17;;;6.80;79.80;;;;;;934093;150;27490;-72
2022/01/13 00:53:27;;;;;;;11.73;8.73;;;6.80;79.80;;;;;;936336;152;27433;-73
2022/01/13 00:56:00;;;;;;;10.57;8.50;;;6.80;79.70;;;;;;933756;152;27308;-72
2022/01/13 00:58:27;;;;;;;11.40;9.73;;;6.80;79.60;;;;;;935917;152;27434;-72
2022/01/13 01:00:53;;;;;;;9.70;8.70;;;6.80;79.80;;;;;;934958;151;27351;-72
2022/01/13 01:03:19;;;;;;;10.20;8.77;;;6.80;79.80;;;;;;937179;151;27415;-73
2022/01/13 01:05:46;;;;;;;9.00;8.10;;;6.80;80.00;;;;;;936275;151;27442;-72
2022/01/13 01:08:15;;;;;;;10.10;8.40;;;6.80;80.00;;;;;;934583;152;27377;-72
2022/01/13 01:10:42;;;;;;;10.20;8.67;;;6.80;80.00;;;;;;937678;151;27358;-73
2022/01/13 01:13:14;;;;;;;11.37;8.93;;;6.80;79.90;;;;;;936523;152;27301;-73
2022/01/13 01:15:40;;;;;;;9.87;8.37;;;6.80;79.90;;;;;;934367;151;27789;-73
2022/01/13 01:18:16;;;;;;;10.53;8.63;;;6.80;79.90;;;;;;933424;152;27683;-72
2022/01/13 01:20:45;;;;;;;10.33;7.97;;;6.80;80.00;;;;;;934501;151;27337;-72
2022/01/13 01:23:11;;;;;;;10.10;8.27;;;6.80;80.10;;;;;;933317;152;27327;-72
2022/01/13 01:27:56;;;;;;;9.63;7.97;;;6.80;80.10;;;;;;935116;151;27724;-73
2022/01/13 01:30:38;;;;;;;9.37;8.17;;;6.80;80.00;;;;;;935363;152;27445;-72
2022/01/13 01:32:58;;;;;;;10.80;7.93;;;6.80;80.00;;;;;;934734;151;27294;-73
2022/01/13 01:35:27;;;;;;;8.83;7.73;;;6.80;80.00;;;;;;935503;152;27324;-73
2022/01/13 01:37:51;;;;;;;11.80;8.20;;;6.80;80.30;;;;;;935959;151;27307;-73
2022/01/13 01:40:21;;;;;;;10.43;7.83;;;6.80;80.30;;;;;;933350;150;27365;-72
2022/01/13 01:42:47;;;;;;;11.23;8.40;;;6.80;80.30;;;;;;936872;151;27419;-72
2022/01/13 01:45:14;;;;;;;10.57;8.30;;;6.70;80.30;;;;;;934273;150;27433;-72
2022/01/13 01:47:43;;;;;;;12.73;8.77;;;6.70;80.30;;;;;;935567;150;27368;-73
2022/01/13 01:50:18;;;;;;;10.03;8.60;;;6.80;80.40;;;;;;935969;150;27993;-72
2022/01/13 01:52:39;;;;;;;9.67;8.63;;;6.80;80.40;;;;;;942424;148;27428;-72
2022/01/13 01:55:06;;;;;;;10.07;8.27;;;6.70;80.40;;;;;;940079;151;27334;-72
2022/01/13 01:57:32;;;;;;;10.97;8.50;;;6.80;80.60;;;;;;942696;151;27252;-73
2022/01/13 01:59:59;;;;;;;11.80;8.13;;;6.80;80.60;;;;;;945101;150;27743;-73
2022/01/13 02:02:29;;;;;;;9.17;8.23;;;6.70;80.40;;;;;;944557;150;27338;-72
2022/01/13 02:04:55;;;;;;;9.33;8.33;;;6.80;80.60;;;;;;946295;151;27449;-72
2022/01/13 02:07:21;;;;;;;10.93;8.63;;;6.80;80.70;;;;;;944071;151;27362;-72
2022/01/13 02:09:52;;;;;;;10.33;8.23;;;6.80;80.70;;;;;;946404;151;27300;-73
2022/01/13 02:12:27;;;;;;;10.50;8.57;;;6.80;80.70;;;;;;946934;150;27436;-73
2022/01/13 02:14:57;;;;;;;10.23;8.47;;;6.80;80.60;;;;;;942888;148;27375;-72
2022/01/13 02:17:23;;;;;;;10.60;9.27;;;6.80;80.60;;;;;;942879;151;27364;-72
2022/01/13 02:19:46;;;;;;;9.50;8.50;;;6.80;80.60;;;;;;942927;150;27288;-72
2022/01/13 02:22:12;;;;;;;9.93;8.33;;;6.80;80.50;;;;;;942726;151;27350;-72
2022/01/13 02:24:39;;;;;;;11.60;8.50;;;6.80;80.40;;;;;;941918;150;27337;-72
2022/01/13 02:27:05;;;;;;;11.10;8.50;;;6.80;80.40;;;;;;942373;151;27396;-73
2022/01/13 02:29:32;;;;;;;9.43;8.10;;;6.80;81.10;;;;;;942148;150;27734;-72
2022/01/13 02:31:58;;;;;;;12.67;9.07;;;6.80;80.40;;;;;;941947;151;27277;-73
2022/01/13 02:34:25;;;;;;;10.67;7.97;;;6.80;80.40;;;;;;942940;151;27319;-73
2022/01/13 02:36:51;;;;;;;12.20;9.00;;;6.70;80.30;;;;;;943017;148;27427;-72
2022/01/13 02:39:18;;;;;;;9.77;8.67;;;6.70;80.30;;;;;;942244;150;27424;-72
2022/01/13 02:41:45;;;;;;;9.23;8.00;;;6.70;80.30;;;;;;942011;150;27314;-72
2022/01/13 02:44:15;;;;;;;13.63;9.33;;;6.70;80.40;;;;;;944227;150;27352;-73
2022/01/13 02:49:04;;;;;;;10.00;7.87;;;6.60;80.50;;;;;;944428;150;27673;-72
2022/01/13 02:51:31;;;;;;;10.40;8.30;;;6.60;80.50;;;;;;939394;150;27512;-73
2022/01/13 02:53:58;;;;;;;9.23;7.67;;;6.60;80.60;;;;;;935562;152;27798;-72
2022/01/13 02:56:24;;;;;;;8.83;7.70;;;6.60;80.60;;;;;;934641;151;27277;-72
2022/01/13 02:58:51;;;;;;;7.40;6.53;;;6.60;80.60;;;;;;936401;152;27365;-72
2022/01/13 03:01:17;;;;;;;11.10;8.03;;;6.60;80.60;;;;;;935937;151;27427;-72
2022/01/13 03:03:44;;;;;;;9.30;8.00;;;6.60;80.60;;;;;;935501;149;27360;-72
2022/01/13 03:06:10;;;;;;;10.73;8.57;;;6.60;80.60;;;;;;932154;152;27389;-72
2022/01/13 03:08:43;;;;;;;8.27;7.43;;;6.50;80.50;;;;;;932642;152;27381;-73
2022/01/13 03:11:10;;;;;;;8.57;7.63;;;6.50;80.50;;;;;;934475;151;27365;-73
2022/01/13 03:13:36;;;;;;;12.47;8.77;;;6.50;80.60;;;;;;934831;150;27348;-72
2022/01/13 03:16:12;;;;;;;10.40;8.07;;;6.50;80.60;;;;;;935661;150;27854;-72
2022/01/13 03:18:38;;;;;;;11.20;8.67;;;6.50;80.70;;;;;;933667;151;27417;-72
2022/01/13 03:21:05;;;;;;;10.43;7.57;;;6.40;80.60;;;;;;933340;152;27319;-72
2022/01/13 03:23:31;;;;;;;9.47;7.67;;;6.40;80.60;;;;;;933967;151;27263;-72
2022/01/13 03:25:58;;;;;;;10.97;8.70;;;6.40;80.70;;;;;;936595;151;27276;-73
2022/01/13 03:31:09;;;;;;;10.47;8.60;;;6.40;80.80;;;;;;935666;151;27348;-72
2022/01/13 03:33:36;;;;;;;10.23;8.10;;;6.40;80.80;;;;;;934476;152;28704;-72
2022/01/13 03:36:03;;;;;;;9.90;8.47;;;6.40;80.70;;;;;;933655;151;27386;-72
2022/01/13 03:38:29;;;;;;;10.53;8.20;;;6.40;80.80;;;;;;933931;151;27364;-72
2022/01/13 03:40:56;;;;;;;9.13;8.23;;;6.40;80.90;;;;;;935985;151;27320;-73
2022/01/13 03:43:22;;;;;;;10.57;8.83;;;6.40;80.90;;;;;;934627;151;27396;-74
2022/01/13 03:45:49;;;;;;;10.60;8.27;;;6.40;80.90;;;;;;934804;151;27875;-73
2022/01/13 03:48:16;;;;;;;9.10;8.17;;;6.40;80.90;;;;;;934936;152;28182;-69
2022/01/13 03:50:42;;;;;;;10.27;8.57;;;6.40;81.00;;;;;;935082;150;27330;-68
2022/01/13 03:53:27;;;;;;;9.17;8.20;;;6.40;81.00;;;;;;942166;150;27417;-73
2022/01/13 03:56:17;;;;;;;10.30;8.13;;;6.40;81.00;;;;;;946917;150;27329;-73
2022/01/13 03:59:15;;;;;;;9.20;8.03;;;6.40;81.00;;;;;;946942;148;27330;-68
2022/01/13 04:02:06;;;;;;;10.13;8.90;;;6.30;80.80;;;;;;947294;149;27346;-70
2022/01/13 04:04:44;;;;;;;9.87;7.57;;;6.30;80.80;;;;;;947876;147;27354;-70
2022/01/13 04:07:20;;;;;;;8.37;7.47;;;6.30;80.90;;;;;;944763;150;27361;-69
2022/01/13 04:09:46;;;;;;;8.50;7.13;;;6.20;81.00;;;;;;946863;150;27380;-69
2022/01/13 04:12:13;;;;;;;8.83;7.50;;;6.20;81.20;;;;;;947473;148;27388;-72
2022/01/13 04:14:46;;;;;;;7.97;6.13;;;6.20;81.40;;;;;;947119;150;27864;-72
2022/01/13 04:17:06;;;;;;;7.70;6.80;;;6.30;81.50;;;;;;947480;149;27482;-69
2022/01/13 04:19:33;;;;;;;7.70;6.47;;;6.30;81.50;;;;;;945341;150;27320;-69
2022/01/13 04:21:59;;;;;;;7.63;6.93;;;6.30;81.40;;;;;;945121;150;27351;-69
2022/01/13 04:24:26;;;;;;;7.53;6.73;;;6.30;81.40;;;;;;948299;150;27328;-69
2022/01/13 04:26:55;;;;;;;8.97;6.50;;;6.30;81.40;;;;;;946679;150;27428;-72
2022/01/13 04:29:28;;;;;;;9.63;7.27;;;6.40;81.50;;;;;;947453;149;27471;-71
2022/01/13 04:31:46;;;;;;;8.57;7.43;;;6.40;81.80;;;;;;945215;149;27432;-69
2022/01/13 04:34:12;;;;;;;10.47;8.27;;;6.40;81.50;;;;;;946259;149;27293;-70
2022/01/13 04:36:39;;;;;;;8.80;7.90;;;6.40;81.50;;;;;;947435;148;27318;-70
2022/01/13 04:39:05;;;;;;;9.67;8.67;;;6.50;81.40;;;;;;946676;150;27408;-73
2022/01/13 04:41:35;;;;;;;9.90;8.17;;;6.50;81.40;;;;;;948661;148;27462;-70
2022/01/13 04:44:01;;;;;;;9.47;7.47;;;6.50;81.40;;;;;;946139;150;27277;-69
2022/01/13 04:46:28;;;;;;;9.73;8.33;;;6.50;81.40;;;;;;944627;150;27768;-69
2022/01/13 04:48:55;;;;;;;10.67;8.63;;;6.50;80.60;;;;;;946683;148;27341;-73
2022/01/13 04:51:21;;;;;;;10.70;8.83;;;6.50;81.30;;;;;;946387;148;27340;-73
2022/01/13 04:53:48;;;;;;;9.20;8.23;;;6.60;81.30;;;;;;937918;148;27399;-69
2022/01/13 04:56:28;;;;;;;11.60;9.03;;;6.60;81.20;;;;;;932530;152;27453;-70
2022/01/13 04:58:44;;;;;;;11.07;9.07;;;6.60;81.20;;;;;;932343;151;27326;-69
2022/01/13 05:01:10;;;;;;;8.50;7.70;;;6.60;81.20;;;;;;934297;150;27312;-70
2022/01/13 05:03:37;;;;;;;9.60;8.40;;;6.60;81.30;;;;;;933912;152;27254;-73
2022/01/13 05:06:10;;;;;;;9.43;7.50;;;6.60;81.20;;;;;;933413;152;27344;-70
2022/01/13 05:08:36;;;;;;;8.03;6.90;;;6.60;81.20;;;;;;932958;151;27702;-69
2022/01/13 05:11:03;;;;;;;6.17;5.20;;;6.60;81.10;;;;;;925067;152;27328;-69
2022/01/13 05:13:29;;;;;;;6.00;5.30;;;6.60;81.00;;;;;;933224;152;27361;-70
2022/01/13 05:15:56;;;;;;;6.87;5.53;;;6.60;80.70;;;;;;934501;150;27479;-70
2022/01/13 05:21:07;;;;;;;7.13;6.43;;;6.60;80.40;;;;;;934511;150;27356;-70
2022/01/13 05:23:30;;;;;;;8.77;6.90;;;6.60;80.40;;;;;;934207;152;27352;-69
2022/01/13 05:25:57;;;;;;;8.00;6.77;;;6.60;80.40;;;;;;933647;151;27337;-70
2022/01/13 05:28:23;;;;;;;11.30;7.80;;;6.60;80.70;;;;;;934250;151;27321;-73
2022/01/13 05:30:50;;;;;;;8.83;7.70;;;6.60;80.70;;;;;;933852;152;27934;-71
2022/01/13 05:33:17;;;;;;;10.53;8.50;;;6.60;80.80;;;;;;933458;151;27338;-69
2022/01/13 05:35:43;;;;;;;8.43;6.47;;;6.60;80.90;;;;;;933102;152;27417;-69
2022/01/13 05:38:10;;;;;;;6.13;5.47;;;6.60;80.90;;;;;;934453;151;27320;-71
2022/01/13 05:40:36;;;;;;;8.13;6.40;;;6.50;80.70;;;;;;933655;152;27308;-73
2022/01/13 05:43:03;;;;;;;5.20;4.70;;;6.60;80.60;;;;;;934815;151;27796;-69
2022/01/13 05:45:30;;;;;;;7.20;5.23;;;6.60;80.50;;;;;;932877;152;27339;-69
2022/01/13 05:47:59;;;;;;;7.43;6.50;;;6.60;80.50;;;;;;934456;149;27305;-69
2022/01/13 05:50:25;;;;;;;8.00;6.80;;;6.50;80.50;;;;;;933809;152;27273;-70
2022/01/13 05:52:52;;;;;;;9.30;8.23;;;6.50;80.60;;;;;;932932;150;27295;-73
2022/01/13 05:55:18;;;;;;;8.40;6.83;;;6.60;80.70;;;;;;934536;152;27702;-70
2022/01/13 05:57:45;;;;;;;6.80;6.10;;;6.50;80.70;;;;;;935656;150;27322;-70
2022/01/13 06:00:12;;;;;;;7.17;5.90;;;6.60;80.60;;;;;;932906;150;27901;-69
2022/01/13 06:02:38;;;;;;;6.47;5.07;;;6.60;80.60;;;;;;934954;152;27250;-69
2022/01/13 06:05:05;;;;;;;6.07;5.20;;;6.60;80.60;;;;;;934282;150;27346;-72
2022/01/13 06:07:31;;;;;;;6.93;5.83;;;6.50;80.40;;;;;;932989;150;27379;-69
2022/01/13 06:09:58;;;;;;;6.17;5.20;;;6.50;80.30;;;;;;933711;152;27498;-70
2022/01/13 06:12:37;;;;;;;6.00;5.33;;;6.50;80.30;;;;;;934338;152;27275;-69
2022/01/13 06:14:51;;;;;;;6.90;5.97;;;6.50;80.30;;;;;;930375;151;27414;-69
2022/01/13 06:17:18;;;;;;;6.53;5.90;;;6.50;80.40;;;;;;934628;151;27342;-72
2022/01/13 06:19:44;;;;;;;7.33;6.63;;;6.50;80.50;;;;;;935051;152;27362;-71
2022/01/13 06:22:14;;;;;;;11.93;7.23;;;6.40;80.60;;;;;;934590;152;27765;-69
2022/01/13 06:24:41;;;;;;;8.90;6.43;;;6.40;80.50;;;;;;934016;150;27345;-71
2022/01/13 06:27:07;;;;;;;9.40;6.67;;;6.40;80.60;;;;;;932624;151;27302;-69
2022/01/13 06:29:34;;;;;;;7.80;6.50;;;6.40;80.60;;;;;;934685;152;27427;-72
2022/01/13 06:32:00;;;;;;;6.70;5.93;;;6.40;80.60;;;;;;933234;151;27374;-70
2022/01/13 06:34:27;;;;;;;7.30;6.50;;;6.40;80.70;;;;;;932893;152;27381;-71
2022/01/13 06:36:53;;;;;;;6.83;6.07;;;6.40;80.80;;;;;;935025;152;27262;-71
2022/01/13 06:39:20;;;;;;;7.60;6.07;;;6.40;80.70;;;;;;934732;151;27373;-69
2022/01/13 06:41:47;;;;;;;6.27;5.33;;;6.40;80.70;;;;;;932936;152;27334;-70
2022/01/13 06:44:13;;;;;;;6.07;5.23;;;6.40;80.90;;;;;;935019;150;27344;-74
2022/01/13 06:46:40;;;;;;;7.47;4.67;;;6.40;80.90;;;;;;933621;152;27352;-70
2022/01/13 06:49:06;;;;;;;6.57;5.60;;;6.40;80.90;;;;;;933032;152;27445;-70
2022/01/13 06:51:36;;;;;;;10.63;6.27;;;6.40;80.90;;;;;;933465;151;27431;-70
2022/01/13 06:54:02;;;;;;;7.10;6.00;;;6.40;81.00;;;;;;936203;150;27364;-72
2022/01/13 06:56:29;;;;;;;6.60;5.93;;;6.40;80.90;;;;;;947146;150;27980;-70
2022/01/13 06:58:56;;;;;;;7.03;5.97;;;6.40;80.90;;;;;;944393;149;27778;-69
2022/01/13 07:01:23;;;;;;;7.10;6.40;;;6.40;80.90;;;;;;946474;150;27310;-70
2022/01/13 07:03:49;;;;;;;6.87;6.17;;;6.40;80.90;;;;;;946548;150;27347;-70
2022/01/13 07:06:15;;;;;;;7.93;7.00;;;6.40;80.90;;;;;;948180;150;27400;-72
2022/01/13 07:08:42;;;;;;;6.63;5.73;;;6.40;81.00;;;;;;946387;150;27431;-73
2022/01/13 07:11:08;;;;;;;9.10;6.47;;;6.40;81.00;;;;;;947331;149;27910;-68
2022/01/13 07:13:35;;;;;;;7.23;5.90;;;6.40;80.90;;;;;;947791;150;27475;-71
2022/01/13 07:16:02;;;;;;;5.70;5.07;;;6.40;80.90;;;;;;945530;148;27367;-69
2022/01/13 07:18:28;;;;;;;5.97;5.13;;;6.40;80.80;;;;;;949191;149;27312;-70
2022/01/13 07:20:56;;;;;;;5.53;4.33;;;6.40;80.80;;;;;;948415;148;27316;-75
2022/01/13 07:23:24;;;;;;;5.57;4.80;;;6.40;80.70;;;;;;945679;150;27423;-71
2022/01/13 07:25:56;;;;;;;6.30;5.70;;;6.40;80.80;;;;;;947942;150;27313;-70
2022/01/13 07:28:23;;;;;;;6.93;5.73;;;6.30;80.70;;;;;;947215;150;27328;-71
2022/01/13 07:30:49;;;;;;;7.53;5.27;;;6.30;80.90;;;;;;947623;148;27408;-73
2022/01/13 07:33:16;;;;;;;6.33;5.07;;;6.30;80.90;;;;;;945721;149;27452;-71
2022/01/13 07:35:43;;;;;;;7.60;5.97;;;6.30;81.00;;;;;;946310;150;27315;-71
2022/01/13 07:38:09;;;;;;;8.20;5.90;;;6.30;81.20;;;;;;948843;149;27371;-71
2022/01/13 07:40:36;;;;;;;7.47;5.47;;;6.30;81.20;;;;;;947806;150;27348;-72
2022/01/13 07:43:02;;;;;;;7.47;5.43;;;6.30;81.20;;;;;;947316;148;27344;-73
2022/01/13 07:45:29;;;;;;;6.17;5.57;;;6.30;81.10;;;;;;947703;148;27337;-71
2022/01/13 07:47:55;;;;;;;8.37;5.60;;;6.30;81.00;;;;;;946312;150;27334;-72
2022/01/13 07:50:22;;;;;;;7.70;5.90;;;6.30;81.20;;;;;;948234;150;27314;-72
2022/01/13 07:52:49;;;;;;;6.43;5.70;;;6.30;81.40;;;;;;947060;148;27342;-71
2022/01/13 07:55:15;;;;;;;7.83;6.40;;;6.30;81.50;;;;;;944636;150;27933;-73
2022/01/13 07:57:42;;;;;;;6.97;5.97;;;6.30;81.50;;;;;;943989;150;27350;-71
2022/01/13 08:00:09;;;;;;;6.57;5.87;;;6.30;81.50;;;;;;942154;151;27480;-71
2022/01/13 08:02:35;;;;;;;7.60;6.40;;;6.30;81.40;;;;;;941597;151;28038;-70
2022/01/13 08:05:02;;;;;;;8.00;6.30;;;6.40;81.50;;;;;;942924;151;27423;-70
2022/01/13 08:07:31;;;;;;;6.23;5.47;;;6.40;81.40;;;;;;942959;150;27438;-71
2022/01/13 08:09:57;;;;;;;11.70;8.07;;;6.40;81.40;;;;;;943848;150;27375;-70
2022/01/13 08:12:25;;;;;;;9.43;7.37;;;6.40;81.50;;;;;;941775;151;27429;-71
2022/01/13 08:14:51;;;;;;;7.17;5.80;;;6.40;81.60;;;;;;944095;151;27338;-71
2022/01/13 08:20:02;;;;;;;7.20;5.83;;;6.40;81.80;;;;;;940905;151;27289;-70
2022/01/13 08:22:29;;;;;;;7.27;5.93;;;6.50;81.70;;;;;;942557;151;27343;-74
2022/01/13 08:24:55;;;;;;;7.63;6.60;;;6.50;81.70;;;;;;940777;151;27343;-71
2022/01/13 08:27:22;;;;;;;7.43;6.10;;;6.50;81.60;;;;;;944074;151;27434;-70
2022/01/13 08:29:48;;;;;;;6.83;5.83;;;6.50;81.70;;;;;;942764;151;27257;-70
2022/01/13 08:32:15;;;;;;;7.50;6.50;;;6.60;81.70;;;;;;944994;150;27797;-72
2022/01/13 08:34:42;;;;;;;8.90;6.97;;;6.60;81.70;;;;;;944652;150;27768;-73
2022/01/13 08:37:11;;;;;;;6.50;5.80;;;6.60;80.80;;;;;;944625;150;27476;-70
2022/01/13 08:39:44;;;;;;;6.73;5.90;;;6.60;81.30;;;;;;944736;150;27327;-72
2022/01/13 08:42:07;;;;;;;6.27;5.17;;;6.60;81.10;;;;;;943559;151;27331;-70
2022/01/13 08:44:33;;;;;;;6.93;5.87;;;6.60;81.00;;;;;;940715;150;27422;-73
2022/01/13 08:47:00;;;;;;;8.37;6.40;;;6.60;81.20;;;;;;942980;150;27460;-70
2022/01/13 08:49:27;;;;;;;8.63;6.67;;;6.60;81.20;;;;;;941708;150;27555;-73
2022/01/13 08:51:54;;;;;;;7.83;7.03;;;6.60;81.20;;;;;;943116;150;27276;-70
2022/01/13 08:54:21;;;;;;;7.53;6.30;;;6.60;81.30;;;;;;942169;150;27445;-72
2022/01/13 08:56:46;;;;;;;6.87;6.20;;;6.70;81.40;;;;;;935557;150;27423;-71
2022/01/13 08:59:13;;;;;;;8.20;6.93;;;6.70;81.60;;;;;;932447;152;27451;-70
2022/01/13 09:01:39;;;;;;;8.37;7.40;;;6.70;81.50;;;;;;932602;152;27344;-72
2022/01/13 09:04:06;;;;;;;8.83;7.13;;;6.70;81.60;;;;;;933751;152;27411;-72
2022/01/13 09:06:33;;;;;;;8.90;7.00;;;6.70;81.50;;;;;;934263;151;27292;-71
2022/01/13 09:08:59;;;;;;;7.57;6.73;;;6.80;81.60;;;;;;933651;150;27385;-71
2022/01/13 09:11:26;;;;;;;7.63;6.83;;;6.80;81.60;;;;;;933671;152;27353;-75
2022/01/13 09:13:58;;;;;;;8.53;6.97;;;6.90;81.60;;;;;;933934;151;27823;-70
2022/01/13 09:16:30;;;;;;;9.57;7.20;;;6.90;81.60;;;;;;933391;152;27375;-70
2022/01/13 09:21:23;;;;;;;10.47;8.30;;;6.90;82.10;;;;;;931191;151;27466;-73
2022/01/13 09:23:50;;;;;;;9.60;7.93;;;7.00;81.20;;;;;;935039;151;27437;-70
2022/01/13 09:26:17;;;;;;;9.73;8.03;;;7.00;81.00;;;;;;934131;151;27401;-70
2022/01/13 09:28:43;;;;;;;8.80;7.77;;;7.00;81.00;;;;;;933313;152;27412;-71
2022/01/13 09:31:10;;;;;;;10.43;7.00;;;7.00;80.90;;;;;;934896;151;27320;-70
2022/01/13 09:33:36;;;;;;;9.17;7.40;;;7.00;80.90;;;;;;934194;150;27359;-75
2022/01/13 09:36:03;;;;;;;7.03;6.33;;;7.00;81.00;;;;;;935890;152;27336;-72
2022/01/13 09:38:29;;;;;;;8.53;6.93;;;7.00;81.00;;;;;;934424;151;27424;-71
2022/01/13 09:40:56;;;;;;;8.17;6.93;;;7.00;81.20;;;;;;932270;150;27991;-71
2022/01/13 09:43:23;;;;;;;8.67;7.27;;;7.00;81.20;;;;;;934645;151;27656;-72
2022/01/13 09:45:49;;;;;;;6.87;6.17;;;7.10;81.20;;;;;;933789;149;27349;-74
2022/01/13 09:48:16;;;;;;;8.73;7.23;;;7.10;81.20;;;;;;933955;151;27475;-71
2022/01/13 09:50:42;;;;;;;8.43;7.30;;;7.10;81.10;;;;;;936065;149;27350;-71
2022/01/13 09:53:09;;;;;;;8.20;7.40;;;7.10;81.10;;;;;;932654;152;27237;-72
2022/01/13 09:55:38;;;;;;;8.23;7.00;;;7.20;81.10;;;;;;933480;150;27439;-71
2022/01/13 09:58:10;;;;;;;9.93;7.10;;;7.20;80.90;;;;;;942317;151;27378;-70
2022/01/13 10:00:31;;;;;;;9.10;6.80;;;7.20;80.70;;;;;;940803;150;27889;-71
2022/01/13 10:02:59;;;;;;;7.77;6.87;;;7.20;80.70;;;;;;942599;151;27446;-71
2022/01/13 10:05:24;;;;;;;9.27;7.43;;;7.20;80.70;;;;;;941745;150;27311;-70
2022/01/13 10:07:51;;;;;;;10.10;7.37;;;7.30;80.90;;;;;;942627;150;27291;-72
2022/01/13 10:10:18;;;;;;;8.20;7.27;;;7.30;80.70;;;;;;941806;150;27957;-71
2022/01/13 10:12:47;;;;;;;9.83;7.60;;;7.30;80.80;;;;;;941932;148;27488;-71
2022/01/13 10:17:58;;;;;;;8.43;7.53;;;7.40;80.90;;;;;;942276;148;27431;-72
2022/01/13 10:20:24;;;;;;;8.73;7.63;;;7.40;80.80;;;;;;940565;150;27310;-73
2022/01/13 10:22:51;;;;;;;9.37;7.67;;;7.40;80.80;;;;;;939698;150;27356;-73
2022/01/13 10:25:32;;;;;;;8.17;7.10;;;7.40;80.70;;;;;;943911;151;27391;-70
2022/01/13 10:28:17;;;;;;;8.23;7.10;;;7.40;80.60;;;;;;941164;151;27334;-70
2022/01/13 10:30:43;;;;;;;8.13;6.93;;;7.50;80.60;;;;;;941789;150;27360;-72
2022/01/13 10:33:25;;;;;;;8.43;7.57;;;7.50;80.40;;;;;;943723;150;27361;-70
2022/01/13 10:35:51;;;;;;;11.23;8.37;;;7.50;80.50;;;;;;940442;151;27428;-70
2022/01/13 10:38:18;;;;;;;9.90;8.33;;;7.60;80.60;;;;;;940265;151;27380;-71
2022/01/13 10:40:46;;;;;;;10.73;8.33;;;7.60;80.50;;;;;;942456;148;27319;-72
2022/01/13 10:43:11;;;;;;;9.73;8.10;;;7.60;80.30;;;;;;942311;150;27424;-73
2022/01/13 10:45:49;;;;;;;9.03;8.13;;;7.60;80.20;;;;;;941474;151;27456;-71
2022/01/13 10:48:24;;;;;;;11.07;8.07;;;7.70;80.20;;;;;;941881;150;27370;-72
2022/01/13 10:50:54;;;;;;;9.80;7.97;;;7.70;80.10;;;;;;940687;151;27343;-71
2022/01/13 10:53:38;;;;;;;12.73;9.30;;;7.70;80.00;;;;;;941287;150;27412;-75
2022/01/13 10:56:11;;;;;;;8.43;7.57;;;7.70;80.20;;;;;;941329;150;27330;-71
2022/01/13 10:58:37;;;;;;;8.80;7.70;;;7.70;80.00;;;;;;942656;148;27383;-71
2022/01/13 11:01:04;;;;;;;9.93;7.57;;;7.70;79.90;;;;;;941128;151;27348;-70
2022/01/13 11:03:31;;;;;;;8.80;7.90;;;7.70;80.00;;;;;;942500;150;27328;-72
2022/01/13 11:05:57;;;;;;;7.57;6.70;;;7.70;79.90;;;;;;942325;151;27438;-71
2022/01/13 11:08:31;;;;;;;9.83;7.43;;;7.80;79.80;;;;;;939591;151;27363;-71
2022/01/13 11:10:56;;;;;;;8.70;7.80;;;7.80;79.80;;;;;;941413;151;27375;-71
2022/01/13 11:13:23;;;;;;;8.47;7.43;;;7.80;79.70;;;;;;940882;150;27319;-71
2022/01/13 11:15:53;;;;;;;9.00;7.17;;;7.80;79.60;;;;;;940407;148;28031;-71
2022/01/13 11:18:16;;;;;;;9.13;7.90;;;7.80;79.50;;;;;;941480;151;27442;-74
2022/01/13 11:20:43;;;;;;;10.50;8.37;;;7.80;79.40;;;;;;941039;150;27327;-72
2022/01/13 11:23:09;;;;;;;10.30;8.87;;;7.80;79.40;;;;;;942401;151;27391;-73
2022/01/13 11:25:37;;;;;;;10.50;8.40;;;7.80;79.20;;;;;;941021;150;27300;-73
2022/01/13 11:28:03;;;;;;;8.97;7.60;;;7.90;79.30;;;;;;940836;151;27386;-72
2022/01/13 11:30:29;;;;;;;8.97;7.80;;;7.80;79.30;;;;;;941718;148;27351;-74
2022/01/13 11:32:56;;;;;;;11.37;8.90;;;7.90;79.40;;;;;;942602;151;27445;-70
2022/01/13 11:35:31;;;;;;;9.00;7.80;;;7.90;79.30;;;;;;941952;151;27362;-72
2022/01/13 11:38:03;;;;;;;8.63;7.57;;;7.90;79.30;;;;;;941338;151;27394;-71
2022/01/13 11:40:30;;;;;;;8.60;7.73;;;7.90;79.10;;;;;;942157;151;27353;-74
2022/01/13 11:42:56;;;;;;;10.00;7.73;;;7.90;79.10;;;;;;942754;150;27420;-72
2022/01/13 11:45:23;;;;;;;9.30;8.13;;;7.80;79.00;;;;;;940765;151;27457;-71
2022/01/13 11:47:51;;;;;;;8.93;7.67;;;7.80;79.10;;;;;;941084;150;27341;-70
2022/01/13 11:50:19;;;;;;;10.97;9.60;;;7.90;79.30;;;;;;939102;150;27357;-72
2022/01/13 11:52:47;;;;;;;12.13;9.93;;;7.90;79.40;;;;;;940361;151;27315;-73
2022/01/13 11:55:15;;;;;;;9.87;8.77;;;7.90;79.30;;;;;;941230;150;27335;-75
2022/01/13 11:57:42;;;;;;;11.07;9.40;;;8.00;79.50;;;;;;937540;151;27501;-70
2022/01/13 12:00:17;;;;;;;8.87;7.97;;;8.10;79.60;;;;;;934083;152;27378;-73
2022/01/13 12:02:44;;;;;;;11.30;8.80;;;8.10;79.60;;;;;;933227;149;27316;-70
2022/01/13 12:05:19;;;;;;;10.57;9.07;;;8.20;79.50;;;;;;932784;151;27427;-73
2022/01/13 12:07:53;;;;;;;9.87;8.87;;;8.20;79.20;;;;;;932774;152;27325;-75
2022/01/13 12:10:21;;;;;;;9.43;8.37;;;8.30;79.00;;;;;;934779;150;27871;-71
2022/01/13 12:12:48;;;;;;;10.30;9.20;;;8.40;78.70;;;;;;934404;152;27330;-72
2022/01/13 12:15:24;;;;;;;11.20;9.30;;;8.40;78.30;;;;;;934291;149;27332;-71
2022/01/13 12:17:53;;;;;;;11.07;9.90;;;8.40;78.20;;;;;;935005;151;27360;-72
2022/01/13 12:23:28;;;;;;;9.97;8.93;;;8.40;78.00;;;;;;934139;152;27446;-73
2022/01/13 12:25:55;;;;;;;10.10;8.80;;;8.40;77.90;;;;;;928360;152;27341;-70
2022/01/13 12:28:24;;;;;;;9.63;8.67;;;8.40;78.00;;;;;;933227;151;27259;-71
2022/01/13 12:30:51;;;;;;;10.23;8.60;;;8.30;77.90;;;;;;934959;151;27447;-74
2022/01/13 12:33:29;;;;;;;11.10;9.23;;;8.30;77.90;;;;;;933745;152;28081;-71
2022/01/13 12:35:56;;;;;;;12.27;9.60;;;8.30;78.10;;;;;;933566;151;27437;-70
2022/01/13 12:38:23;;;;;;;10.60;8.93;;;8.40;78.30;;;;;;933772;151;27326;-70
2022/01/13 12:40:50;;;;;;;10.83;9.47;;;8.40;78.20;;;;;;932672;151;27353;-70
2022/01/13 12:43:34;;;;;;;12.47;10.37;;;8.40;78.20;;;;;;935572;149;27407;-72
2022/01/13 12:45:48;;;;;;;11.13;10.03;;;8.50;78.00;;;;;;934248;151;27368;-70
2022/01/13 12:48:14;;;;;;;12.50;11.37;;;8.50;77.90;;;;;;934698;152;27346;-71
2022/01/13 12:50:44;;;;;;;12.27;10.60;;;8.50;77.70;;;;;;935472;149;27413;-71
2022/01/13 12:53:19;;;;;;;11.77;10.57;;;8.50;77.50;;;;;;933122;151;27301;-73
2022/01/13 12:55:45;;;;;;;12.87;11.40;;;8.50;77.70;;;;;;933877;151;28634;-71
2022/01/13 12:58:12;;;;;;;14.07;11.93;;;8.50;77.30;;;;;;934087;151;27393;-69
2022/01/13 13:00:39;;;;;;;16.17;11.03;;;8.50;77.20;;;;;;933431;150;27322;-71
2022/01/13 13:03:08;;;;;;;12.73;11.43;;;8.50;77.10;;;;;;934043;150;27312;-73
2022/01/13 13:05:44;;;;;;;13.37;12.00;;;8.40;77.00;;;;;;936789;151;27362;-74
2022/01/13 13:08:13;;;;;;;12.97;11.20;;;8.40;77.00;;;;;;933702;150;27340;-72
2022/01/13 13:10:42;;;;;;;16.57;12.13;;;8.40;77.10;;;;;;933601;152;27411;-71
2022/01/13 13:13:09;;;;;;;13.93;11.77;;;8.40;77.10;;;;;;933581;151;27760;-73
2022/01/13 13:18:02;;;;;;;13.30;11.90;;;8.40;76.90;;;;;;933463;150;27443;-71
2022/01/13 13:20:29;;;;;;;13.77;11.60;;;8.40;76.90;;;;;;933175;152;27335;-70
2022/01/13 13:22:56;;;;;;;13.77;12.10;;;8.30;76.90;;;;;;935828;152;27304;-71